sensor_id;sensor_type;location;lat;lon;timestamp;temperature;humidity
79065;DHT22;68469;51.502;7.462;2023-09-19T00:00:42;15.80;99.90
79065;DHT22;68469;51.502;7.462;2023-09-19T00:03:08;15.70;99.90
79065;DHT22;68469;51.502;7.462;2023-09-19T00:05:35;15.70;99.90
79065;DHT22;68469;51.502;7.462;2023-09-19T00:08:01;15.60;99.90
79065;DHT22;68469;51.502;7.462;2023-09-19T00:10:30;15.60;99.90
79065;DHT22;68469;51.502;7.462;2023-09-19T00:12:57;15.50;99.90
79065;DHT22;68469;51.502;7.462;2023-09-19T00:15:26;15.50;99.90
79065;DHT22;68469;51.502;7.462;2023-09-19T00:17:55;15.50;99.90
79065;DHT22;68469;51.502;7.462;2023-09-19T00:20:21;15.40;99.90
79065;DHT22;68469;51.502;7.462;2023-09-19T00:22:49;15.40;99.90
79065;DHT22;68469;51.502;7.462;2023-09-19T00:25:19;15.40;99.90
79065;DHT22;68469;51.502;7.462;2023-09-19T00:27:48;15.40;99.90
79065;DHT22;68469;51.502;7.462;2023-09-19T00:30:17;15.30;99.90
79065;DHT22;68469;51.502;7.462;2023-09-19T00:32:47;15.30;99.90
79065;DHT22;68469;51.502;7.462;2023-09-19T00:35:13;15.30;99.90
79065;DHT22;68469;51.502;7.462;2023-09-19T00:37:40;15.30;99.90
79065;DHT22;68469;51.502;7.462;2023-09-19T00:40:07;15.30;99.90
79065;DHT22;68469;51.502;7.462;2023-09-19T00:42:38;15.30;99.90
79065;DHT22;68469;51.502;7.462;2023-09-19T00:45:05;15.30;99.90
79065;DHT22;68469;51.502;7.462;2023-09-19T00:47:31;15.20;99.90
79065;DHT22;68469;51.502;7.462;2023-09-19T00:49:57;15.20;99.90
79065;DHT22;68469;51.502;7.462;2023-09-19T00:52:24;15.20;99.90
79065;DHT22;68469;51.502;7.462;2023-09-19T00:54:50;15.10;99.90
79065;DHT22;68469;51.502;7.462;2023-09-19T00:57:16;15.10;99.90
79065;DHT22;68469;51.502;7.462;2023-09-19T00:59:43;15.10;99.90
79065;DHT22;68469;51.502;7.462;2023-09-19T01:02:09;15.10;99.90
79065;DHT22;68469;51.502;7.462;2023-09-19T01:04:34;15.10;99.90
79065;DHT22;68469;51.502;7.462;2023-09-19T01:07:00;15.00;99.90
79065;DHT22;68469;51.502;7.462;2023-09-19T01:09:26;15.00;99.90
79065;DHT22;68469;51.502;7.462;2023-09-19T01:11:54;15.00;99.90
79065;DHT22;68469;51.502;7.462;2023-09-19T01:14:31;15.00;99.90
79065;DHT22;68469;51.502;7.462;2023-09-19T01:17:39;14.90;99.90
79065;DHT22;68469;51.502;7.462;2023-09-19T01:20:27;14.90;99.90
79065;DHT22;68469;51.502;7.462;2023-09-19T01:23:17;14.90;99.90
79065;DHT22;68469;51.502;7.462;2023-09-19T01:28:31;14.80;99.90
79065;DHT22;68469;51.502;7.462;2023-09-19T01:31:02;14.80;99.90
79065;DHT22;68469;51.502;7.462;2023-09-19T01:36:13;14.80;99.90
79065;DHT22;68469;51.502;7.462;2023-09-19T01:38:41;14.70;99.90
79065;DHT22;68469;51.502;7.462;2023-09-19T01:41:11;14.70;99.90
79065;DHT22;68469;51.502;7.462;2023-09-19T01:43:47;14.70;99.90
79065;DHT22;68469;51.502;7.462;2023-09-19T01:46:28;14.70;99.90
79065;DHT22;68469;51.502;7.462;2023-09-19T01:54:36;14.60;99.90
79065;DHT22;68469;51.502;7.462;2023-09-19T01:57:12;14.70;99.90
79065;DHT22;68469;51.502;7.462;2023-09-19T01:59:54;14.70;99.90
79065;DHT22;68469;51.502;7.462;2023-09-19T02:02:23;14.60;99.90
79065;DHT22;68469;51.502;7.462;2023-09-19T02:04:50;14.60;99.90
79065;DHT22;68469;51.502;7.462;2023-09-19T02:07:16;14.60;99.90
79065;DHT22;68469;51.502;7.462;2023-09-19T02:09:42;14.70;99.90
79065;DHT22;68469;51.502;7.462;2023-09-19T02:12:09;14.60;99.90
79065;DHT22;68469;51.502;7.462;2023-09-19T02:14:35;14.60;99.90
79065;DHT22;68469;51.502;7.462;2023-09-19T02:17:04;14.60;99.90
79065;DHT22;68469;51.502;7.462;2023-09-19T02:19:34;14.60;99.90
79065;DHT22;68469;51.502;7.462;2023-09-19T02:22:00;14.60;99.90
79065;DHT22;68469;51.502;7.462;2023-09-19T02:24:28;14.60;99.90
79065;DHT22;68469;51.502;7.462;2023-09-19T02:26:54;14.50;99.90
79065;DHT22;68469;51.502;7.462;2023-09-19T02:29:21;14.60;99.90
79065;DHT22;68469;51.502;7.462;2023-09-19T02:31:47;14.60;99.90
79065;DHT22;68469;51.502;7.462;2023-09-19T02:34:13;14.60;99.90
79065;DHT22;68469;51.502;7.462;2023-09-19T02:36:39;14.50;99.90
79065;DHT22;68469;51.502;7.462;2023-09-19T02:39:05;14.50;99.90
79065;DHT22;68469;51.502;7.462;2023-09-19T02:41:31;14.50;99.90
79065;DHT22;68469;51.502;7.462;2023-09-19T02:43:58;14.50;99.90
79065;DHT22;68469;51.502;7.462;2023-09-19T02:46:24;14.50;99.90
79065;DHT22;68469;51.502;7.462;2023-09-19T02:48:50;14.50;99.90
79065;DHT22;68469;51.502;7.462;2023-09-19T02:51:16;14.50;99.90
79065;DHT22;68469;51.502;7.462;2023-09-19T02:53:41;14.50;99.90
79065;DHT22;68469;51.502;7.462;2023-09-19T02:56:07;14.50;99.90
79065;DHT22;68469;51.502;7.462;2023-09-19T02:58:35;14.60;99.90
79065;DHT22;68469;51.502;7.462;2023-09-19T03:01:10;14.60;99.90
79065;DHT22;68469;51.502;7.462;2023-09-19T03:03:40;14.50;99.90
79065;DHT22;68469;51.502;7.462;2023-09-19T03:06:06;14.50;99.90
79065;DHT22;68469;51.502;7.462;2023-09-19T03:08:35;14.50;99.90
79065;DHT22;68469;51.502;7.462;2023-09-19T03:11:03;14.50;99.90
79065;DHT22;68469;51.502;7.462;2023-09-19T03:13:29;14.50;99.90
79065;DHT22;68469;51.502;7.462;2023-09-19T03:15:56;14.50;99.90
79065;DHT22;68469;51.502;7.462;2023-09-19T03:18:24;14.50;99.90
79065;DHT22;68469;51.502;7.462;2023-09-19T03:20:55;14.50;99.90
79065;DHT22;68469;51.502;7.462;2023-09-19T03:23:21;14.50;99.90
79065;DHT22;68469;51.502;7.462;2023-09-19T03:25:47;14.50;99.90
79065;DHT22;68469;51.502;7.462;2023-09-19T03:28:13;14.50;99.90
79065;DHT22;68469;51.502;7.462;2023-09-19T03:30:40;14.50;99.90
79065;DHT22;68469;51.502;7.462;2023-09-19T03:33:06;14.50;99.90
79065;DHT22;68469;51.502;7.462;2023-09-19T03:35:32;14.50;99.90
79065;DHT22;68469;51.502;7.462;2023-09-19T03:37:57;14.50;99.90
79065;DHT22;68469;51.502;7.462;2023-09-19T03:40:23;14.50;99.90
79065;DHT22;68469;51.502;7.462;2023-09-19T03:42:50;14.50;99.90
79065;DHT22;68469;51.502;7.462;2023-09-19T03:45:16;14.50;99.90
79065;DHT22;68469;51.502;7.462;2023-09-19T03:47:43;14.40;99.90
79065;DHT22;68469;51.502;7.462;2023-09-19T03:50:09;14.50;99.90
79065;DHT22;68469;51.502;7.462;2023-09-19T03:52:40;14.40;99.90
79065;DHT22;68469;51.502;7.462;2023-09-19T03:55:06;14.40;99.90
79065;DHT22;68469;51.502;7.462;2023-09-19T03:57:32;14.40;99.90
79065;DHT22;68469;51.502;7.462;2023-09-19T03:59:57;14.40;99.90
79065;DHT22;68469;51.502;7.462;2023-09-19T04:02:23;14.40;99.90
79065;DHT22;68469;51.502;7.462;2023-09-19T04:04:50;14.40;99.90
79065;DHT22;68469;51.502;7.462;2023-09-19T04:07:16;14.30;99.90
79065;DHT22;68469;51.502;7.462;2023-09-19T04:09:42;14.30;99.90
79065;DHT22;68469;51.502;7.462;2023-09-19T04:12:07;14.30;99.90
79065;DHT22;68469;51.502;7.462;2023-09-19T04:14:37;14.30;99.90
79065;DHT22;68469;51.502;7.462;2023-09-19T04:17:03;14.30;99.90
79065;DHT22;68469;51.502;7.462;2023-09-19T04:19:30;14.30;99.90
79065;DHT22;68469;51.502;7.462;2023-09-19T04:21:56;14.20;99.90
79065;DHT22;68469;51.502;7.462;2023-09-19T04:24:21;14.20;99.90
79065;DHT22;68469;51.502;7.462;2023-09-19T04:26:47;14.20;99.90
79065;DHT22;68469;51.502;7.462;2023-09-19T04:29:13;14.20;99.90
79065;DHT22;68469;51.502;7.462;2023-09-19T04:31:39;14.20;99.90
79065;DHT22;68469;51.502;7.462;2023-09-19T04:34:06;14.20;99.90
79065;DHT22;68469;51.502;7.462;2023-09-19T04:36:31;14.10;99.90
79065;DHT22;68469;51.502;7.462;2023-09-19T04:38:57;14.20;99.90
79065;DHT22;68469;51.502;7.462;2023-09-19T04:41:23;14.10;99.90
79065;DHT22;68469;51.502;7.462;2023-09-19T04:43:49;14.20;99.90
79065;DHT22;68469;51.502;7.462;2023-09-19T04:46:16;14.20;99.90
79065;DHT22;68469;51.502;7.462;2023-09-19T04:48:43;14.20;99.90
79065;DHT22;68469;51.502;7.462;2023-09-19T04:51:08;14.20;99.90
79065;DHT22;68469;51.502;7.462;2023-09-19T04:53:34;14.10;99.90
79065;DHT22;68469;51.502;7.462;2023-09-19T04:55:59;14.20;99.90
79065;DHT22;68469;51.502;7.462;2023-09-19T04:58:25;14.20;99.90
79065;DHT22;68469;51.502;7.462;2023-09-19T05:00:50;14.20;99.90
79065;DHT22;68469;51.502;7.462;2023-09-19T05:03:17;14.20;99.90
79065;DHT22;68469;51.502;7.462;2023-09-19T05:05:43;14.20;99.90
79065;DHT22;68469;51.502;7.462;2023-09-19T05:08:08;14.20;99.90
79065;DHT22;68469;51.502;7.462;2023-09-19T05:10:35;14.20;99.90
79065;DHT22;68469;51.502;7.462;2023-09-19T05:13:06;14.20;99.90
79065;DHT22;68469;51.502;7.462;2023-09-19T05:15:35;14.20;99.90
79065;DHT22;68469;51.502;7.462;2023-09-19T05:18:02;14.20;99.90
79065;DHT22;68469;51.502;7.462;2023-09-19T05:20:28;14.30;99.90
79065;DHT22;68469;51.502;7.462;2023-09-19T05:22:59;14.30;99.90
79065;DHT22;68469;51.502;7.462;2023-09-19T05:25:32;14.30;99.90
79065;DHT22;68469;51.502;7.462;2023-09-19T05:27:58;14.30;99.90
79065;DHT22;68469;51.502;7.462;2023-09-19T05:30:27;14.30;99.90
79065;DHT22;68469;51.502;7.462;2023-09-19T05:32:54;14.30;99.90
79065;DHT22;68469;51.502;7.462;2023-09-19T05:35:20;14.30;99.90
79065;DHT22;68469;51.502;7.462;2023-09-19T05:37:47;14.30;99.90
79065;DHT22;68469;51.502;7.462;2023-09-19T05:40:19;14.30;99.90
79065;DHT22;68469;51.502;7.462;2023-09-19T05:42:45;14.30;99.90
79065;DHT22;68469;51.502;7.462;2023-09-19T05:45:11;14.40;99.90
79065;DHT22;68469;51.502;7.462;2023-09-19T05:47:40;14.40;99.90
79065;DHT22;68469;51.502;7.462;2023-09-19T05:50:08;14.40;99.90
79065;DHT22;68469;51.502;7.462;2023-09-19T05:52:35;14.40;99.90
79065;DHT22;68469;51.502;7.462;2023-09-19T05:55:05;14.40;99.90
79065;DHT22;68469;51.502;7.462;2023-09-19T05:57:33;14.50;99.90
79065;DHT22;68469;51.502;7.462;2023-09-19T05:59:59;14.50;99.90
79065;DHT22;68469;51.502;7.462;2023-09-19T06:02:24;14.50;99.90
79065;DHT22;68469;51.502;7.462;2023-09-19T06:04:54;14.50;99.90
79065;DHT22;68469;51.502;7.462;2023-09-19T06:07:21;14.60;99.90
79065;DHT22;68469;51.502;7.462;2023-09-19T06:09:47;14.60;99.90
79065;DHT22;68469;51.502;7.462;2023-09-19T06:12:13;14.70;99.90
79065;DHT22;68469;51.502;7.462;2023-09-19T06:14:43;14.80;99.90
79065;DHT22;68469;51.502;7.462;2023-09-19T06:17:09;14.80;99.90
79065;DHT22;68469;51.502;7.462;2023-09-19T06:19:34;14.90;99.90
79065;DHT22;68469;51.502;7.462;2023-09-19T06:22:00;14.90;99.90
79065;DHT22;68469;51.502;7.462;2023-09-19T06:24:25;15.00;99.90
79065;DHT22;68469;51.502;7.462;2023-09-19T06:26:51;15.00;99.90
79065;DHT22;68469;51.502;7.462;2023-09-19T06:29:18;15.10;99.90
79065;DHT22;68469;51.502;7.462;2023-09-19T06:31:46;15.20;99.90
79065;DHT22;68469;51.502;7.462;2023-09-19T06:34:12;15.20;99.90
79065;DHT22;68469;51.502;7.462;2023-09-19T06:36:40;15.30;99.90
79065;DHT22;68469;51.502;7.462;2023-09-19T06:39:06;15.30;99.90
79065;DHT22;68469;51.502;7.462;2023-09-19T06:41:34;15.40;99.90
79065;DHT22;68469;51.502;7.462;2023-09-19T06:44:00;15.50;99.90
79065;DHT22;68469;51.502;7.462;2023-09-19T06:46:26;15.50;99.90
79065;DHT22;68469;51.502;7.462;2023-09-19T06:48:58;15.60;99.90
79065;DHT22;68469;51.502;7.462;2023-09-19T06:51:23;15.60;99.90
79065;DHT22;68469;51.502;7.462;2023-09-19T06:53:49;15.70;99.90
79065;DHT22;68469;51.502;7.462;2023-09-19T06:56:14;15.70;99.90
79065;DHT22;68469;51.502;7.462;2023-09-19T06:58:40;15.70;99.90
79065;DHT22;68469;51.502;7.462;2023-09-19T07:01:08;15.80;99.90
79065;DHT22;68469;51.502;7.462;2023-09-19T07:03:34;15.90;99.90
79065;DHT22;68469;51.502;7.462;2023-09-19T07:05:59;15.90;99.90
79065;DHT22;68469;51.502;7.462;2023-09-19T07:08:25;16.00;99.90
79065;DHT22;68469;51.502;7.462;2023-09-19T07:10:51;16.00;99.90
79065;DHT22;68469;51.502;7.462;2023-09-19T07:13:19;16.10;99.90
79065;DHT22;68469;51.502;7.462;2023-09-19T07:15:45;16.10;99.90
79065;DHT22;68469;51.502;7.462;2023-09-19T07:18:18;16.20;99.90
79065;DHT22;68469;51.502;7.462;2023-09-19T07:20:46;16.30;99.90
79065;DHT22;68469;51.502;7.462;2023-09-19T07:23:18;16.30;99.90
79065;DHT22;68469;51.502;7.462;2023-09-19T07:25:47;16.40;99.90
79065;DHT22;68469;51.502;7.462;2023-09-19T07:28:14;16.50;99.90
79065;DHT22;68469;51.502;7.462;2023-09-19T07:30:40;16.60;99.90
79065;DHT22;68469;51.502;7.462;2023-09-19T07:33:07;16.70;99.90
79065;DHT22;68469;51.502;7.462;2023-09-19T07:35:33;16.70;99.90
79065;DHT22;68469;51.502;7.462;2023-09-19T07:37:59;16.70;99.90
79065;DHT22;68469;51.502;7.462;2023-09-19T07:40:27;16.80;99.90
79065;DHT22;68469;51.502;7.462;2023-09-19T07:42:57;16.70;99.90
79065;DHT22;68469;51.502;7.462;2023-09-19T07:45:27;16.90;99.90
79065;DHT22;68469;51.502;7.462;2023-09-19T07:47:53;16.90;99.90
79065;DHT22;68469;51.502;7.462;2023-09-19T07:50:19;17.00;99.90
79065;DHT22;68469;51.502;7.462;2023-09-19T07:52:46;17.10;99.90
79065;DHT22;68469;51.502;7.462;2023-09-19T07:55:12;17.10;99.90
79065;DHT22;68469;51.502;7.462;2023-09-19T07:57:43;17.20;99.90
79065;DHT22;68469;51.502;7.462;2023-09-19T08:00:09;17.40;99.90
79065;DHT22;68469;51.502;7.462;2023-09-19T08:02:39;17.50;99.90
79065;DHT22;68469;51.502;7.462;2023-09-19T08:05:06;17.60;99.90
79065;DHT22;68469;51.502;7.462;2023-09-19T08:07:32;17.70;99.90
79065;DHT22;68469;51.502;7.462;2023-09-19T08:09:58;17.80;98.40
79065;DHT22;68469;51.502;7.462;2023-09-19T08:12:24;18.00;98.30
79065;DHT22;68469;51.502;7.462;2023-09-19T08:14:50;18.10;98.80
79065;DHT22;68469;51.502;7.462;2023-09-19T08:17:16;18.20;97.00
79065;DHT22;68469;51.502;7.462;2023-09-19T08:19:42;18.10;95.20
79065;DHT22;68469;51.502;7.462;2023-09-19T08:22:10;18.10;97.40
79065;DHT22;68469;51.502;7.462;2023-09-19T08:24:36;18.30;98.10
79065;DHT22;68469;51.502;7.462;2023-09-19T08:27:04;18.30;95.10
79065;DHT22;68469;51.502;7.462;2023-09-19T08:29:31;18.50;95.70
79065;DHT22;68469;51.502;7.462;2023-09-19T08:31:57;18.70;96.50
79065;DHT22;68469;51.502;7.462;2023-09-19T08:34:26;18.80;95.00
79065;DHT22;68469;51.502;7.462;2023-09-19T08:36:53;18.90;92.90
79065;DHT22;68469;51.502;7.462;2023-09-19T08:39:24;19.00;94.20
79065;DHT22;68469;51.502;7.462;2023-09-19T08:42:00;19.00;92.50
79065;DHT22;68469;51.502;7.462;2023-09-19T08:44:27;19.20;92.20
79065;DHT22;68469;51.502;7.462;2023-09-19T08:47:09;19.30;91.90
79065;DHT22;68469;51.502;7.462;2023-09-19T08:49:47;19.30;89.50
79065;DHT22;68469;51.502;7.462;2023-09-19T08:52:25;19.50;91.70
79065;DHT22;68469;51.502;7.462;2023-09-19T08:54:56;19.70;90.60
79065;DHT22;68469;51.502;7.462;2023-09-19T08:57:25;19.80;86.00
79065;DHT22;68469;51.502;7.462;2023-09-19T08:59:55;19.90;87.70
79065;DHT22;68469;51.502;7.462;2023-09-19T09:02:22;20.10;86.40
79065;DHT22;68469;51.502;7.462;2023-09-19T09:04:50;20.30;88.80
79065;DHT22;68469;51.502;7.462;2023-09-19T09:07:16;20.30;83.30
79065;DHT22;68469;51.502;7.462;2023-09-19T09:09:44;20.40;84.20
79065;DHT22;68469;51.502;7.462;2023-09-19T09:12:14;20.60;84.60
79065;DHT22;68469;51.502;7.462;2023-09-19T09:14:44;20.70;82.00
79065;DHT22;68469;51.502;7.462;2023-09-19T09:17:11;20.90;82.60
79065;DHT22;68469;51.502;7.462;2023-09-19T09:19:37;21.00;80.80
79065;DHT22;68469;51.502;7.462;2023-09-19T09:22:10;21.10;79.20
79065;DHT22;68469;51.502;7.462;2023-09-19T09:24:36;21.30;79.20
79065;DHT22;68469;51.502;7.462;2023-09-19T09:27:05;21.40;78.40
79065;DHT22;68469;51.502;7.462;2023-09-19T09:29:47;21.50;76.90
79065;DHT22;68469;51.502;7.462;2023-09-19T09:32:30;21.40;71.80
79065;DHT22;68469;51.502;7.462;2023-09-19T09:35:00;21.40;72.50
79065;DHT22;68469;51.502;7.462;2023-09-19T09:37:27;21.60;75.50
79065;DHT22;68469;51.502;7.462;2023-09-19T09:39:59;21.80;74.60
79065;DHT22;68469;51.502;7.462;2023-09-19T09:42:43;22.00;72.40
79065;DHT22;68469;51.502;7.462;2023-09-19T09:45:13;22.00;72.00
79065;DHT22;68469;51.502;7.462;2023-09-19T09:47:46;22.20;69.60
79065;DHT22;68469;51.502;7.462;2023-09-19T09:52:55;22.80;69.00
79065;DHT22;68469;51.502;7.462;2023-09-19T09:56:07;22.80;65.20
79065;DHT22;68469;51.502;7.462;2023-09-19T09:58:40;22.90;67.30
79065;DHT22;68469;51.502;7.462;2023-09-19T10:01:14;23.30;66.20
79065;DHT22;68469;51.502;7.462;2023-09-19T10:03:44;23.50;63.90
79065;DHT22;68469;51.502;7.462;2023-09-19T10:06:15;23.70;64.30
79065;DHT22;68469;51.502;7.462;2023-09-19T10:09:08;23.90;64.40
79065;DHT22;68469;51.502;7.462;2023-09-19T10:14:12;24.50;59.60
79065;DHT22;68469;51.502;7.462;2023-09-19T10:16:46;24.60;59.30
79065;DHT22;68469;51.502;7.462;2023-09-19T10:19:28;24.80;59.00
79065;DHT22;68469;51.502;7.462;2023-09-19T10:21:55;25.00;56.40
79065;DHT22;68469;51.502;7.462;2023-09-19T10:24:22;25.10;54.90
79065;DHT22;68469;51.502;7.462;2023-09-19T10:26:50;25.60;56.20
79065;DHT22;68469;51.502;7.462;2023-09-19T10:29:17;26.50;55.70
79065;DHT22;68469;51.502;7.462;2023-09-19T10:31:47;27.20;52.70
79065;DHT22;68469;51.502;7.462;2023-09-19T10:34:17;28.20;49.70
79065;DHT22;68469;51.502;7.462;2023-09-19T10:36:46;28.20;48.50
79065;DHT22;68469;51.502;7.462;2023-09-19T10:39:16;28.60;47.10
79065;DHT22;68469;51.502;7.462;2023-09-19T10:41:51;29.90;46.50
79065;DHT22;68469;51.502;7.462;2023-09-19T10:44:25;31.20;44.40
79065;DHT22;68469;51.502;7.462;2023-09-19T10:46:52;32.80;42.60
79065;DHT22;68469;51.502;7.462;2023-09-19T10:49:22;33.60;39.10
79065;DHT22;68469;51.502;7.462;2023-09-19T10:51:54;34.00;38.10
79065;DHT22;68469;51.502;7.462;2023-09-19T10:54:26;34.30;37.20
79065;DHT22;68469;51.502;7.462;2023-09-19T10:56:53;34.80;36.90
79065;DHT22;68469;51.502;7.462;2023-09-19T10:59:20;35.40;36.10
79065;DHT22;68469;51.502;7.462;2023-09-19T11:01:55;35.60;35.90
79065;DHT22;68469;51.502;7.462;2023-09-19T11:04:35;34.60;35.50
79065;DHT22;68469;51.502;7.462;2023-09-19T11:09:53;34.20;37.00
79065;DHT22;68469;51.502;7.462;2023-09-19T11:15:07;34.30;35.20
79065;DHT22;68469;51.502;7.462;2023-09-19T11:17:38;33.80;36.00
79065;DHT22;68469;51.502;7.462;2023-09-19T11:30:40;37.60;32.50
79065;DHT22;68469;51.502;7.462;2023-09-19T11:36:14;37.10;32.90
79065;DHT22;68469;51.502;7.462;2023-09-19T11:46:17;40.30;29.50
79065;DHT22;68469;51.502;7.462;2023-09-19T11:48:50;40.50;28.70
79065;DHT22;68469;51.502;7.462;2023-09-19T11:51:21;40.60;28.60
79065;DHT22;68469;51.502;7.462;2023-09-19T11:54:03;41.10;28.50
79065;DHT22;68469;51.502;7.462;2023-09-19T11:56:29;41.30;28.20
79065;DHT22;68469;51.502;7.462;2023-09-19T11:58:57;41.40;27.90
79065;DHT22;68469;51.502;7.462;2023-09-19T12:01:33;40.60;28.20
79065;DHT22;68469;51.502;7.462;2023-09-19T12:04:01;39.20;28.70
79065;DHT22;68469;51.502;7.462;2023-09-19T12:06:30;37.20;30.50
79065;DHT22;68469;51.502;7.462;2023-09-19T12:08:58;35.20;31.60
79065;DHT22;68469;51.502;7.462;2023-09-19T12:11:30;33.30;34.50
79065;DHT22;68469;51.502;7.462;2023-09-19T12:14:00;31.80;37.10
79065;DHT22;68469;51.502;7.462;2023-09-19T12:16:27;30.60;38.00
79065;DHT22;68469;51.502;7.462;2023-09-19T12:18:56;29.40;40.20
79065;DHT22;68469;51.502;7.462;2023-09-19T12:21:27;28.40;42.50
79065;DHT22;68469;51.502;7.462;2023-09-19T12:26:27;26.90;44.80
79065;DHT22;68469;51.502;7.462;2023-09-19T12:28:55;26.40;45.10
79065;DHT22;68469;51.502;7.462;2023-09-19T12:31:21;25.90;46.10
79065;DHT22;68469;51.502;7.462;2023-09-19T12:33:53;25.50;47.20
79065;DHT22;68469;51.502;7.462;2023-09-19T12:36:21;25.30;48.40
79065;DHT22;68469;51.502;7.462;2023-09-19T12:38:54;24.90;48.50
79065;DHT22;68469;51.502;7.462;2023-09-19T12:41:20;24.70;49.60
79065;DHT22;68469;51.502;7.462;2023-09-19T12:43:47;24.40;48.90
79065;DHT22;68469;51.502;7.462;2023-09-19T12:46:13;24.20;49.20
79065;DHT22;68469;51.502;7.462;2023-09-19T12:48:40;23.90;50.60
79065;DHT22;68469;51.502;7.462;2023-09-19T12:51:10;23.70;51.50
79065;DHT22;68469;51.502;7.462;2023-09-19T12:53:42;23.50;52.20
79065;DHT22;68469;51.502;7.462;2023-09-19T12:56:10;23.20;52.20
79065;DHT22;68469;51.502;7.462;2023-09-19T12:58:59;23.00;52.50
79065;DHT22;68469;51.502;7.462;2023-09-19T13:01:28;22.70;52.60
79065;DHT22;68469;51.502;7.462;2023-09-19T13:04:14;22.50;52.60
79065;DHT22;68469;51.502;7.462;2023-09-19T13:06:52;22.40;52.80
79065;DHT22;68469;51.502;7.462;2023-09-19T13:09:19;22.20;53.30
79065;DHT22;68469;51.502;7.462;2023-09-19T13:11:46;22.10;52.50
79065;DHT22;68469;51.502;7.462;2023-09-19T13:17:06;21.90;54.00
79065;DHT22;68469;51.502;7.462;2023-09-19T13:19:46;21.80;53.50
79065;DHT22;68469;51.502;7.462;2023-09-19T13:22:43;21.70;53.90
79065;DHT22;68469;51.502;7.462;2023-09-19T13:25:18;21.70;53.90
79065;DHT22;68469;51.502;7.462;2023-09-19T13:27:46;21.70;53.10
79065;DHT22;68469;51.502;7.462;2023-09-19T13:30:14;21.60;53.20
79065;DHT22;68469;51.502;7.462;2023-09-19T13:32:40;21.60;54.30
79065;DHT22;68469;51.502;7.462;2023-09-19T13:35:07;21.60;55.10
79065;DHT22;68469;51.502;7.462;2023-09-19T13:37:35;21.60;54.50
79065;DHT22;68469;51.502;7.462;2023-09-19T13:40:05;21.60;53.80
79065;DHT22;68469;51.502;7.462;2023-09-19T13:42:30;21.50;54.10
79065;DHT22;68469;51.502;7.462;2023-09-19T13:44:57;21.50;54.60
79065;DHT22;68469;51.502;7.462;2023-09-19T13:47:22;21.40;54.70
79065;DHT22;68469;51.502;7.462;2023-09-19T13:49:50;21.40;55.10
79065;DHT22;68469;51.502;7.462;2023-09-19T13:52:21;21.30;54.90
79065;DHT22;68469;51.502;7.462;2023-09-19T13:54:50;21.20;55.10
79065;DHT22;68469;51.502;7.462;2023-09-19T13:57:16;21.20;55.50
79065;DHT22;68469;51.502;7.462;2023-09-19T13:59:42;21.10;55.70
79065;DHT22;68469;51.502;7.462;2023-09-19T14:02:08;21.10;55.40
79065;DHT22;68469;51.502;7.462;2023-09-19T14:04:33;21.10;56.30
79065;DHT22;68469;51.502;7.462;2023-09-19T14:07:00;21.00;56.60
79065;DHT22;68469;51.502;7.462;2023-09-19T14:09:26;21.00;57.10
79065;DHT22;68469;51.502;7.462;2023-09-19T14:11:52;21.10;56.80
79065;DHT22;68469;51.502;7.462;2023-09-19T14:14:21;21.10;57.10
79065;DHT22;68469;51.502;7.462;2023-09-19T14:16:49;21.20;57.40
79065;DHT22;68469;51.502;7.462;2023-09-19T14:19:15;21.40;57.50
79065;DHT22;68469;51.502;7.462;2023-09-19T14:21:42;21.50;57.30
79065;DHT22;68469;51.502;7.462;2023-09-19T14:24:08;21.70;56.10
79065;DHT22;68469;51.502;7.462;2023-09-19T14:26:35;21.80;56.40
79065;DHT22;68469;51.502;7.462;2023-09-19T14:29:01;21.90;55.80
79065;DHT22;68469;51.502;7.462;2023-09-19T14:31:27;22.00;56.60
79065;DHT22;68469;51.502;7.462;2023-09-19T14:33:57;22.00;56.10
79065;DHT22;68469;51.502;7.462;2023-09-19T14:36:25;21.90;55.50
79065;DHT22;68469;51.502;7.462;2023-09-19T14:38:53;21.90;56.10
79065;DHT22;68469;51.502;7.462;2023-09-19T14:41:22;21.90;56.30
79065;DHT22;68469;51.502;7.462;2023-09-19T14:43:51;21.90;56.10
79065;DHT22;68469;51.502;7.462;2023-09-19T14:46:17;21.90;57.10
79065;DHT22;68469;51.502;7.462;2023-09-19T14:48:44;21.80;56.90
79065;DHT22;68469;51.502;7.462;2023-09-19T14:51:12;21.80;56.60
79065;DHT22;68469;51.502;7.462;2023-09-19T14:53:42;21.90;57.00
79065;DHT22;68469;51.502;7.462;2023-09-19T14:56:09;21.90;57.80
79065;DHT22;68469;51.502;7.462;2023-09-19T14:58:35;21.80;57.40
79065;DHT22;68469;51.502;7.462;2023-09-19T15:01:09;21.80;56.60
79065;DHT22;68469;51.502;7.462;2023-09-19T15:03:36;21.80;57.30
79065;DHT22;68469;51.502;7.462;2023-09-19T15:06:07;21.70;58.00
79065;DHT22;68469;51.502;7.462;2023-09-19T15:08:35;21.70;56.70
79065;DHT22;68469;51.502;7.462;2023-09-19T15:11:01;21.70;57.70
79065;DHT22;68469;51.502;7.462;2023-09-19T15:13:31;21.70;57.50
79065;DHT22;68469;51.502;7.462;2023-09-19T15:16:05;21.60;58.10
79065;DHT22;68469;51.502;7.462;2023-09-19T15:18:34;21.50;58.80
79065;DHT22;68469;51.502;7.462;2023-09-19T15:21:03;21.40;58.30
79065;DHT22;68469;51.502;7.462;2023-09-19T15:23:32;21.30;57.60
79065;DHT22;68469;51.502;7.462;2023-09-19T15:26:00;21.30;59.00
79065;DHT22;68469;51.502;7.462;2023-09-19T15:28:27;21.10;58.50
79065;DHT22;68469;51.502;7.462;2023-09-19T15:33:25;21.00;60.80
79065;DHT22;68469;51.502;7.462;2023-09-19T15:36:03;20.90;61.10
79065;DHT22;68469;51.502;7.462;2023-09-19T15:38:30;20.80;61.80
79065;DHT22;68469;51.502;7.462;2023-09-19T15:40:57;20.70;61.10
79065;DHT22;68469;51.502;7.462;2023-09-19T15:43:23;20.70;61.60
79065;DHT22;68469;51.502;7.462;2023-09-19T15:45:49;20.60;61.40
79065;DHT22;68469;51.502;7.462;2023-09-19T15:48:15;20.50;62.40
79065;DHT22;68469;51.502;7.462;2023-09-19T15:50:42;20.50;63.00
79065;DHT22;68469;51.502;7.462;2023-09-19T15:53:09;20.40;63.00
79065;DHT22;68469;51.502;7.462;2023-09-19T15:55:41;20.30;63.50
79065;DHT22;68469;51.502;7.462;2023-09-19T15:58:07;20.30;62.90
79065;DHT22;68469;51.502;7.462;2023-09-19T16:00:33;20.20;62.00
79065;DHT22;68469;51.502;7.462;2023-09-19T16:03:02;20.30;63.30
79065;DHT22;68469;51.502;7.462;2023-09-19T16:05:34;20.30;63.40
79065;DHT22;68469;51.502;7.462;2023-09-19T16:08:03;20.30;64.00
79065;DHT22;68469;51.502;7.462;2023-09-19T16:10:29;20.30;63.10
79065;DHT22;68469;51.502;7.462;2023-09-19T16:12:55;20.30;62.60
79065;DHT22;68469;51.502;7.462;2023-09-19T16:15:20;20.30;62.70
79065;DHT22;68469;51.502;7.462;2023-09-19T16:17:46;20.30;63.10
79065;DHT22;68469;51.502;7.462;2023-09-19T16:20:12;20.20;63.00
79065;DHT22;68469;51.502;7.462;2023-09-19T16:22:39;20.10;64.00
79065;DHT22;68469;51.502;7.462;2023-09-19T16:25:06;20.10;64.60
79065;DHT22;68469;51.502;7.462;2023-09-19T16:27:31;20.00;64.20
79065;DHT22;68469;51.502;7.462;2023-09-19T16:29:57;19.90;64.40